Adventure Hornblower — WDA3017 — position and weather

sailwx.info

Track history (hours):
 
Tides and Currents Weather Stations Pressure Air Temp Water Temp Dewpoint Dewpoint Depression Visibility Wind Speed Wind Dir Waves Ship Positions

Adventure Hornblower

Owner: Hornblower Cruises and Events, San Diego, CA. More information available from US FCC via Universal Licensing System and Coast Guard Vessel Documentation Center.

Last reported at 2018-Feb-18 00:01 UTC. Time now 2018-Feb-20 23:52 UTC.
Position N 32°36' W 117°14'.

Length 49 m; draft 1.8 m.

Type: Passenger vessel. MMSI: 366793760.

Date/timePositionNaut miles runAvg speedWind from/ knotsBaromVisibWave heightAir tempDewpointWater temp
2018-Feb-18 00:01N 32°36' W 117°14'0 5.1
2018-Feb-17 23:58N 32°36' W 117°14'7 0.2
2018-Feb-16 05:40N 32°42' W 117°10'2 7.3
2018-Feb-16 05:25N 32°41' W 117°09'4 4.1
2018-Feb-16 04:21N 32°42' W 117°13'0 0.8
2018-Feb-16 03:53N 32°42' W 117°14'0 0.1
2018-Feb-16 00:33N 32°43' W 117°13'112.1
2018-Feb-16 00:30N 32°42' W 117°14'813.6
2018-Feb-15 23:57N 32°35' W 117°16'4 2.4
2018-Feb-15 22:09N 32°39' W 117°14'313.6
2018-Feb-15 21:54N 32°42' W 117°14'0 0.0
2018-Feb-15 00:45N 32°42' W 117°14'3 0.6
2018-Feb-14 20:05N 32°40' W 117°16'2 4.9
2018-Feb-14 19:39N 32°42' W 117°17'0 1.3
2018-Feb-14 19:25N 32°42' W 117°17'4 0.2
2018-Feb-14 00:02N 32°39' W 117°16'3 0.1
2018-Feb-13 00:42N 32°42' W 117°14'311.2
2018-Feb-13 00:23N 32°39' W 117°15'1 3.5
2018-Feb-13 00:00N 32°40' W 117°16'2 1.1
2018-Feb-12 21:59N 32°40' W 117°14'2 1.7
2018-Feb-12 20:51N 32°42' W 117°14'5 5.2
2018-Feb-12 19:56N 32°37' W 117°16'4 8.0
2018-Feb-12 19:28N 32°40' W 117°18'4 8.4
2018-Feb-12 19:00N 32°44' W 117°19'610.5
2018-Feb-12 18:28N 32°39' W 117°17'4 7.3
2018-Feb-12 17:51N 32°42' W 117°14'1 0.0
2018-Feb-12 04:05N 32°42' W 117°13'1 5.6
2018-Feb-12 03:58N 32°42' W 117°14'0 0.0
2018-Feb-12 00:32N 32°42' W 117°14'4 8.2
2018-Feb-12 00:05N 32°41' W 117°18'1 7.3
2018-Feb-11 23:58N 32°42' W 117°19'2 5.1
2018-Feb-11 23:30N 32°44' W 117°19'5 8.6
2018-Feb-11 22:53N 32°39' W 117°17'1 1.0
2018-Feb-11 22:24N 32°39' W 117°16'3 5.8
2018-Feb-11 21:50N 32°41' W 117°14'1 1.0
2018-Feb-11 20:42N 32°42' W 117°13'411.4
2018-Feb-11 20:22N 32°39' W 117°16'3 9.1
2018-Feb-11 20:00N 32°42' W 117°17'4 8.3
2018-Feb-11 19:30N 32°42' W 117°22'4 7.3
2018-Feb-11 18:58N 32°41' W 117°18'2 3.8
2018-Feb-11 18:29N 32°39' W 117°17'4 5.7
2018-Feb-11 17:52N 32°41' W 117°14'2 0.1
2018-Feb-11 00:44N 32°43' W 117°13'4 9.0
2018-Feb-11 00:20N 32°39' W 117°16'2 6.2
2018-Feb-11 00:00N 32°41' W 117°17'3 4.6
2018-Feb-10 23:26N 32°44' W 117°17'410.4
2018-Feb-10 23:00N 32°40' W 117°18'4 3.5
2018-Feb-10 21:55N 32°42' W 117°14'0 0.1
2018-Feb-10 20:44N 32°42' W 117°14'5 7.5
2018-Feb-10 20:07N 32°37' W 117°15'1 7.5
2018-Feb-10 20:00N 32°38' W 117°16'2 3.4
2018-Feb-10 19:28N 32°40' W 117°17'1 2.3
2018-Feb-10 18:56N 32°39' W 117°17'1 1.1
2018-Feb-10 18:23N 32°39' W 117°16'3 0.2
2018-Feb-10 00:26N 32°41' W 117°14'7 6.1
2018-Feb-09 23:21N 32°35' W 117°14'1 3.0
2018-Feb-09 22:53N 32°36' W 117°16'1 9.8
2018-Feb-09 22:46N 32°37' W 117°16'2 6.3
2018-Feb-09 22:31N 32°38' W 117°16'4 0.1
2018-Feb-08 00:35N 32°42' W 117°14'213.3
2018-Feb-08 00:26N 32°40' W 117°14'  
Track history (hours):
 
Tides and Currents Weather Stations Pressure Air Temp Water Temp Dewpoint Dewpoint Depression Visibility Wind Speed Wind Dir Waves Ship Positions

Adventure Hornblower

Owner: Hornblower Cruises and Events, San Diego, CA. More information available from US FCC via Universal Licensing System and Coast Guard Vessel Documentation Center.

Last reported at 2018-Feb-18 00:01 UTC. Time now 2018-Feb-20 23:52 UTC.
Position N 32°36' W 117°14'.

Length 49 m; draft 1.8 m.

Type: Passenger vessel. MMSI: 366793760.

Date/timePositionNaut miles runAvg speedWind from/ knotsBaromVisibWave heightAir tempDewpointWater temp
2018-Feb-18 00:01N 32°36' W 117°14'0 5.1
2018-Feb-17 23:58N 32°36' W 117°14'7 0.2
2018-Feb-16 05:40N 32°42' W 117°10'2 7.3
2018-Feb-16 05:25N 32°41' W 117°09'4 4.1
2018-Feb-16 04:21N 32°42' W 117°13'0 0.8
2018-Feb-16 03:53N 32°42' W 117°14'0 0.1
2018-Feb-16 00:33N 32°43' W 117°13'112.1
2018-Feb-16 00:30N 32°42' W 117°14'813.6
2018-Feb-15 23:57N 32°35' W 117°16'4 2.4
2018-Feb-15 22:09N 32°39' W 117°14'313.6
2018-Feb-15 21:54N 32°42' W 117°14'0 0.0
2018-Feb-15 00:45N 32°42' W 117°14'3 0.6
2018-Feb-14 20:05N 32°40' W 117°16'2 4.9
2018-Feb-14 19:39N 32°42' W 117°17'0 1.3
2018-Feb-14 19:25N 32°42' W 117°17'4 0.2
2018-Feb-14 00:02N 32°39' W 117°16'3 0.1
2018-Feb-13 00:42N 32°42' W 117°14'311.2
2018-Feb-13 00:23N 32°39' W 117°15'1 3.5
2018-Feb-13 00:00N 32°40' W 117°16'2 1.1
2018-Feb-12 21:59N 32°40' W 117°14'2 1.7
2018-Feb-12 20:51N 32°42' W 117°14'5 5.2
2018-Feb-12 19:56N 32°37' W 117°16'4 8.0
2018-Feb-12 19:28N 32°40' W 117°18'4 8.4
2018-Feb-12 19:00N 32°44' W 117°19'610.5
2018-Feb-12 18:28N 32°39' W 117°17'4 7.3
2018-Feb-12 17:51N 32°42' W 117°14'1 0.0
2018-Feb-12 04:05N 32°42' W 117°13'1 5.6
2018-Feb-12 03:58N 32°42' W 117°14'0 0.0
2018-Feb-12 00:32N 32°42' W 117°14'4 8.2
2018-Feb-12 00:05N 32°41' W 117°18'1 7.3
2018-Feb-11 23:58N 32°42' W 117°19'2 5.1
2018-Feb-11 23:30N 32°44' W 117°19'5 8.6
2018-Feb-11 22:53N 32°39' W 117°17'1 1.0
2018-Feb-11 22:24N 32°39' W 117°16'3 5.8
2018-Feb-11 21:50N 32°41' W 117°14'1 1.0
2018-Feb-11 20:42N 32°42' W 117°13'411.4
2018-Feb-11 20:22N 32°39' W 117°16'3 9.1
2018-Feb-11 20:00N 32°42' W 117°17'4 8.3
2018-Feb-11 19:30N 32°42' W 117°22'4 7.3
2018-Feb-11 18:58N 32°41' W 117°18'2 3.8
2018-Feb-11 18:29N 32°39' W 117°17'4 5.7
2018-Feb-11 17:52N 32°41' W 117°14'2 0.1
2018-Feb-11 00:44N 32°43' W 117°13'4 9.0
2018-Feb-11 00:20N 32°39' W 117°16'2 6.2
2018-Feb-11 00:00N 32°41' W 117°17'3 4.6
2018-Feb-10 23:26N 32°44' W 117°17'410.4
2018-Feb-10 23:00N 32°40' W 117°18'4 3.5
2018-Feb-10 21:55N 32°42' W 117°14'0 0.1
2018-Feb-10 20:44N 32°42' W 117°14'5 7.5
2018-Feb-10 20:07N 32°37' W 117°15'1 7.5
2018-Feb-10 20:00N 32°38' W 117°16'2 3.4
2018-Feb-10 19:28N 32°40' W 117°17'1 2.3
2018-Feb-10 18:56N 32°39' W 117°17'1 1.1
2018-Feb-10 18:23N 32°39' W 117°16'3 0.2
2018-Feb-10 00:26N 32°41' W 117°14'7 6.1
2018-Feb-09 23:21N 32°35' W 117°14'1 3.0
2018-Feb-09 22:53N 32°36' W 117°16'1 9.8
2018-Feb-09 22:46N 32°37' W 117°16'2 6.3
2018-Feb-09 22:31N 32°38' W 117°16'4 0.1
2018-Feb-08 00:35N 32°42' W 117°14'213.3
2018-Feb-08 00:26N 32°40' W 117°14'  

Dump ship's entire track history